Archival Weather

Chicago O'Hare International

Chicago, Illinois (KORD)

Report from: Tuesday, December 6, 2022 12:51 PM CST
Current time: Saturday, February 4, 2023 9:47 PM CST

Current weather
Weather history
Weather forecast

Present weatherHaze
Temperature6.1°C (43.0°F)
Wind chill4.1°C (39.5°F)
Dew point2.2°C (36.0°F)
Winds 5 kts (2.6 m/s, 5.8 mph) Northeast (40°)
Visibility5 mi. (8 km)
Clouds Ceiling: Overcast 1,200 ft. (366 m)
Altimeter29.99 in.Hg (1016 mB)
Relative humidity76 %
Density altitude-1,045 ft. (-319 m)
Sea-level pressure101.6 kPa (1016 mB, 30.01 in.Hg)
Remarks Automated weather observing station with precipitation discriminator
Flight conditions Marginal Visual Meteorological Conditions
Raw dataKORD 061851Z 04005KT 5SM HZ OVC012 06/02 A2999 RMK AO2 SLP161 T00610022
An unhandled exception has occurred. See browser dev tools for details. Reload 🗙